sensor_id;sensor_type;location;lat;lon;timestamp;P1;durP1;ratioP1;P2;durP2;ratioP2
54871;SDS011;43914;57.680;11.982;2023-03-14T00:01:46;31.70;;;4.90;;
54871;SDS011;43914;57.680;11.982;2023-03-14T00:04:12;35.30;;;4.80;;
54871;SDS011;43914;57.680;11.982;2023-03-14T00:06:37;36.40;;;4.70;;
54871;SDS011;43914;57.680;11.982;2023-03-14T00:09:03;33.90;;;5.20;;
54871;SDS011;43914;57.680;11.982;2023-03-14T00:11:29;35.60;;;5.10;;
54871;SDS011;43914;57.680;11.982;2023-03-14T00:13:54;37.10;;;5.00;;
54871;SDS011;43914;57.680;11.982;2023-03-14T00:16:20;33.90;;;4.80;;
54871;SDS011;43914;57.680;11.982;2023-03-14T00:18:46;21.90;;;4.30;;
54871;SDS011;43914;57.680;11.982;2023-03-14T00:21:12;30.00;;;5.30;;
54871;SDS011;43914;57.680;11.982;2023-03-14T00:23:38;23.50;;;4.20;;
54871;SDS011;43914;57.680;11.982;2023-03-14T00:26:07;26.10;;;4.90;;
54871;SDS011;43914;57.680;11.982;2023-03-14T00:28:35;28.90;;;4.10;;
54871;SDS011;43914;57.680;11.982;2023-03-14T00:31:07;14.90;;;2.70;;
54871;SDS011;43914;57.680;11.982;2023-03-14T00:33:35;29.40;;;4.10;;
54871;SDS011;43914;57.680;11.982;2023-03-14T00:36:02;24.70;;;3.60;;
54871;SDS011;43914;57.680;11.982;2023-03-14T00:38:30;26.30;;;3.80;;
54871;SDS011;43914;57.680;11.982;2023-03-14T00:40:57;28.00;;;4.30;;
54871;SDS011;43914;57.680;11.982;2023-03-14T00:43:23;25.60;;;3.70;;
54871;SDS011;43914;57.680;11.982;2023-03-14T00:45:50;21.20;;;3.70;;
54871;SDS011;43914;57.680;11.982;2023-03-14T00:48:17;29.50;;;4.50;;
54871;SDS011;43914;57.680;11.982;2023-03-14T00:50:44;24.80;;;4.00;;
54871;SDS011;43914;57.680;11.982;2023-03-14T00:53:10;22.40;;;3.60;;
54871;SDS011;43914;57.680;11.982;2023-03-14T00:55:37;25.50;;;4.50;;
54871;SDS011;43914;57.680;11.982;2023-03-14T00:58:03;30.90;;;5.10;;
54871;SDS011;43914;57.680;11.982;2023-03-14T01:00:29;24.70;;;4.30;;
54871;SDS011;43914;57.680;11.982;2023-03-14T01:02:54;22.00;;;3.90;;
54871;SDS011;43914;57.680;11.982;2023-03-14T01:05:21;27.40;;;3.60;;
54871;SDS011;43914;57.680;11.982;2023-03-14T01:07:47;25.70;;;4.60;;
54871;SDS011;43914;57.680;11.982;2023-03-14T01:10:13;23.70;;;4.00;;
54871;SDS011;43914;57.680;11.982;2023-03-14T01:12:38;22.30;;;4.40;;
54871;SDS011;43914;57.680;11.982;2023-03-14T01:15:04;24.10;;;4.10;;
54871;SDS011;43914;57.680;11.982;2023-03-14T01:17:30;22.70;;;3.80;;
54871;SDS011;43914;57.680;11.982;2023-03-14T01:19:55;35.90;;;5.20;;
54871;SDS011;43914;57.680;11.982;2023-03-14T01:22:21;31.80;;;4.30;;
54871;SDS011;43914;57.680;11.982;2023-03-14T01:24:46;22.40;;;3.50;;
54871;SDS011;43914;57.680;11.982;2023-03-14T01:27:12;33.30;;;4.30;;
54871;SDS011;43914;57.680;11.982;2023-03-14T01:29:38;23.80;;;3.60;;
54871;SDS011;43914;57.680;11.982;2023-03-14T01:32:03;26.80;;;3.50;;
54871;SDS011;43914;57.680;11.982;2023-03-14T01:34:29;31.90;;;3.80;;
54871;SDS011;43914;57.680;11.982;2023-03-14T01:36:55;22.70;;;3.40;;
54871;SDS011;43914;57.680;11.982;2023-03-14T01:39:20;25.40;;;4.40;;
54871;SDS011;43914;57.680;11.982;2023-03-14T01:41:46;21.10;;;3.20;;
54871;SDS011;43914;57.680;11.982;2023-03-14T01:44:11;22.90;;;3.80;;
54871;SDS011;43914;57.680;11.982;2023-03-14T01:46:38;22.50;;;2.80;;
54871;SDS011;43914;57.680;11.982;2023-03-14T01:49:10;27.40;;;4.10;;
54871;SDS011;43914;57.680;11.982;2023-03-14T01:59:57;24.50;;;3.30;;
54871;SDS011;43914;57.680;11.982;2023-03-14T02:02:29;23.40;;;3.40;;
54871;SDS011;43914;57.680;11.982;2023-03-14T02:04:55;21.60;;;3.20;;
54871;SDS011;43914;57.680;11.982;2023-03-14T02:07:30;18.50;;;2.90;;
54871;SDS011;43914;57.680;11.982;2023-03-14T02:10:02;20.30;;;3.30;;
54871;SDS011;43914;57.680;11.982;2023-03-14T02:12:29;26.30;;;3.60;;
54871;SDS011;43914;57.680;11.982;2023-03-14T02:14:55;20.60;;;3.10;;
54871;SDS011;43914;57.680;11.982;2023-03-14T02:17:20;29.70;;;3.50;;
54871;SDS011;43914;57.680;11.982;2023-03-14T02:20:01;17.70;;;3.30;;
54871;SDS011;43914;57.680;11.982;2023-03-14T02:22:38;22.30;;;3.10;;
54871;SDS011;43914;57.680;11.982;2023-03-14T02:28:01;25.40;;;3.40;;
54871;SDS011;43914;57.680;11.982;2023-03-14T02:30:28;25.50;;;3.30;;
54871;SDS011;43914;57.680;11.982;2023-03-14T02:32:58;17.00;;;2.60;;
54871;SDS011;43914;57.680;11.982;2023-03-14T02:35:28;19.40;;;3.20;;
54871;SDS011;43914;57.680;11.982;2023-03-14T02:38:33;29.90;;;3.50;;
54871;SDS011;43914;57.680;11.982;2023-03-14T02:41:09;17.60;;;2.50;;
54871;SDS011;43914;57.680;11.982;2023-03-14T02:43:35;20.90;;;3.00;;
54871;SDS011;43914;57.680;11.982;2023-03-14T02:46:01;16.70;;;2.60;;
54871;SDS011;43914;57.680;11.982;2023-03-14T02:48:31;15.10;;;2.90;;
54871;SDS011;43914;57.680;11.982;2023-03-14T02:51:01;21.50;;;2.60;;
54871;SDS011;43914;57.680;11.982;2023-03-14T02:53:28;16.70;;;2.40;;
54871;SDS011;43914;57.680;11.982;2023-03-14T02:55:56;16.50;;;3.00;;
54871;SDS011;43914;57.680;11.982;2023-03-14T02:58:23;21.60;;;3.30;;
54871;SDS011;43914;57.680;11.982;2023-03-14T03:00:48;19.70;;;2.80;;
54871;SDS011;43914;57.680;11.982;2023-03-14T03:03:14;26.00;;;3.60;;
54871;SDS011;43914;57.680;11.982;2023-03-14T03:05:40;17.30;;;2.60;;
54871;SDS011;43914;57.680;11.982;2023-03-14T03:08:07;20.70;;;3.00;;
54871;SDS011;43914;57.680;11.982;2023-03-14T03:10:33;15.70;;;3.20;;
54871;SDS011;43914;57.680;11.982;2023-03-14T03:12:59;20.60;;;3.10;;
54871;SDS011;43914;57.680;11.982;2023-03-14T03:15:25;26.70;;;3.40;;
54871;SDS011;43914;57.680;11.982;2023-03-14T03:17:50;20.20;;;3.10;;
54871;SDS011;43914;57.680;11.982;2023-03-14T03:20:16;22.30;;;4.20;;
54871;SDS011;43914;57.680;11.982;2023-03-14T03:22:41;28.00;;;3.10;;
54871;SDS011;43914;57.680;11.982;2023-03-14T03:25:07;28.30;;;3.10;;
54871;SDS011;43914;57.680;11.982;2023-03-14T03:27:34;21.60;;;2.90;;
54871;SDS011;43914;57.680;11.982;2023-03-14T03:30:02;20.80;;;2.80;;
54871;SDS011;43914;57.680;11.982;2023-03-14T03:32:31;19.00;;;3.00;;
54871;SDS011;43914;57.680;11.982;2023-03-14T03:34:59;19.00;;;2.70;;
54871;SDS011;43914;57.680;11.982;2023-03-14T03:37:25;21.50;;;3.30;;
54871;SDS011;43914;57.680;11.982;2023-03-14T03:39:51;18.40;;;2.40;;
54871;SDS011;43914;57.680;11.982;2023-03-14T03:42:17;18.60;;;2.30;;
54871;SDS011;43914;57.680;11.982;2023-03-14T03:44:43;23.80;;;3.00;;
54871;SDS011;43914;57.680;11.982;2023-03-14T03:47:09;16.20;;;2.50;;
54871;SDS011;43914;57.680;11.982;2023-03-14T03:49:34;19.80;;;2.90;;
54871;SDS011;43914;57.680;11.982;2023-03-14T03:52:00;21.90;;;2.70;;
54871;SDS011;43914;57.680;11.982;2023-03-14T03:54:25;26.30;;;3.00;;
54871;SDS011;43914;57.680;11.982;2023-03-14T03:56:51;20.80;;;2.80;;
54871;SDS011;43914;57.680;11.982;2023-03-14T03:59:17;23.30;;;3.00;;
54871;SDS011;43914;57.680;11.982;2023-03-14T04:01:43;18.30;;;2.60;;
54871;SDS011;43914;57.680;11.982;2023-03-14T04:04:08;21.30;;;2.60;;
54871;SDS011;43914;57.680;11.982;2023-03-14T04:06:34;15.10;;;2.20;;
54871;SDS011;43914;57.680;11.982;2023-03-14T04:08:59;26.40;;;3.10;;
54871;SDS011;43914;57.680;11.982;2023-03-14T04:11:25;14.30;;;2.30;;
54871;SDS011;43914;57.680;11.982;2023-03-14T04:13:51;19.20;;;2.50;;
54871;SDS011;43914;57.680;11.982;2023-03-14T04:16:18;20.90;;;2.70;;
54871;SDS011;43914;57.680;11.982;2023-03-14T04:18:46;22.40;;;2.60;;
54871;SDS011;43914;57.680;11.982;2023-03-14T04:21:12;18.80;;;2.90;;
54871;SDS011;43914;57.680;11.982;2023-03-14T04:23:37;15.00;;;2.60;;
54871;SDS011;43914;57.680;11.982;2023-03-14T04:26:03;23.20;;;2.30;;
54871;SDS011;43914;57.680;11.982;2023-03-14T04:28:29;16.50;;;2.40;;
54871;SDS011;43914;57.680;11.982;2023-03-14T04:30:54;19.40;;;3.00;;
54871;SDS011;43914;57.680;11.982;2023-03-14T04:33:20;20.40;;;2.80;;
54871;SDS011;43914;57.680;11.982;2023-03-14T04:35:45;23.20;;;2.60;;
54871;SDS011;43914;57.680;11.982;2023-03-14T04:38:12;17.20;;;3.00;;
54871;SDS011;43914;57.680;11.982;2023-03-14T04:40:38;25.20;;;3.40;;
54871;SDS011;43914;57.680;11.982;2023-03-14T04:43:05;23.40;;;4.20;;
54871;SDS011;43914;57.680;11.982;2023-03-14T04:45:30;29.00;;;3.00;;
54871;SDS011;43914;57.680;11.982;2023-03-14T04:47:56;27.30;;;3.20;;
54871;SDS011;43914;57.680;11.982;2023-03-14T04:50:21;19.90;;;3.40;;
54871;SDS011;43914;57.680;11.982;2023-03-14T04:52:47;23.10;;;2.70;;
54871;SDS011;43914;57.680;11.982;2023-03-14T04:55:13;17.10;;;2.50;;
54871;SDS011;43914;57.680;11.982;2023-03-14T04:57:38;22.10;;;2.70;;
54871;SDS011;43914;57.680;11.982;2023-03-14T05:00:04;27.30;;;3.60;;
54871;SDS011;43914;57.680;11.982;2023-03-14T05:02:31;22.30;;;3.00;;
54871;SDS011;43914;57.680;11.982;2023-03-14T05:04:57;23.80;;;3.60;;
54871;SDS011;43914;57.680;11.982;2023-03-14T05:07:22;24.50;;;3.80;;
54871;SDS011;43914;57.680;11.982;2023-03-14T05:09:48;15.00;;;2.70;;
54871;SDS011;43914;57.680;11.982;2023-03-14T05:12:14;25.90;;;3.40;;
54871;SDS011;43914;57.680;11.982;2023-03-14T05:14:40;32.90;;;3.80;;
54871;SDS011;43914;57.680;11.982;2023-03-14T05:17:05;27.60;;;3.30;;
54871;SDS011;43914;57.680;11.982;2023-03-14T05:19:30;22.30;;;3.00;;
54871;SDS011;43914;57.680;11.982;2023-03-14T05:21:56;22.00;;;2.80;;
54871;SDS011;43914;57.680;11.982;2023-03-14T05:24:22;29.40;;;3.90;;
54871;SDS011;43914;57.680;11.982;2023-03-14T05:26:47;26.60;;;3.90;;
54871;SDS011;43914;57.680;11.982;2023-03-14T05:29:13;25.90;;;4.00;;
54871;SDS011;43914;57.680;11.982;2023-03-14T05:31:38;21.80;;;3.10;;
54871;SDS011;43914;57.680;11.982;2023-03-14T05:34:04;26.10;;;3.60;;
54871;SDS011;43914;57.680;11.982;2023-03-14T05:36:29;32.80;;;3.90;;
54871;SDS011;43914;57.680;11.982;2023-03-14T05:38:58;33.70;;;3.70;;
54871;SDS011;43914;57.680;11.982;2023-03-14T05:41:23;25.30;;;3.80;;
54871;SDS011;43914;57.680;11.982;2023-03-14T05:43:49;26.90;;;3.50;;
54871;SDS011;43914;57.680;11.982;2023-03-14T05:46:15;28.30;;;3.60;;
54871;SDS011;43914;57.680;11.982;2023-03-14T05:48:41;34.40;;;3.80;;
54871;SDS011;43914;57.680;11.982;2023-03-14T05:51:06;31.50;;;4.70;;
54871;SDS011;43914;57.680;11.982;2023-03-14T05:53:32;28.10;;;3.90;;
54871;SDS011;43914;57.680;11.982;2023-03-14T05:55:57;31.60;;;4.40;;
54871;SDS011;43914;57.680;11.982;2023-03-14T05:58:23;29.70;;;3.80;;
54871;SDS011;43914;57.680;11.982;2023-03-14T06:00:49;30.20;;;3.50;;
54871;SDS011;43914;57.680;11.982;2023-03-14T06:03:15;32.60;;;3.70;;
54871;SDS011;43914;57.680;11.982;2023-03-14T06:05:41;30.20;;;4.00;;
54871;SDS011;43914;57.680;11.982;2023-03-14T06:08:06;30.40;;;3.70;;
54871;SDS011;43914;57.680;11.982;2023-03-14T06:10:32;27.10;;;3.60;;
54871;SDS011;43914;57.680;11.982;2023-03-14T06:12:57;28.80;;;3.80;;
54871;SDS011;43914;57.680;11.982;2023-03-14T06:15:23;40.70;;;4.40;;
54871;SDS011;43914;57.680;11.982;2023-03-14T06:17:48;42.50;;;5.20;;
54871;SDS011;43914;57.680;11.982;2023-03-14T06:20:14;30.40;;;4.20;;
54871;SDS011;43914;57.680;11.982;2023-03-14T06:22:39;32.00;;;4.00;;
54871;SDS011;43914;57.680;11.982;2023-03-14T06:25:06;32.50;;;3.80;;
54871;SDS011;43914;57.680;11.982;2023-03-14T06:27:32;30.80;;;3.50;;
54871;SDS011;43914;57.680;11.982;2023-03-14T06:29:58;38.60;;;4.40;;
54871;SDS011;43914;57.680;11.982;2023-03-14T06:32:23;29.70;;;4.40;;
54871;SDS011;43914;57.680;11.982;2023-03-14T06:34:49;32.20;;;4.20;;
54871;SDS011;43914;57.680;11.982;2023-03-14T06:37:15;27.50;;;3.90;;
54871;SDS011;43914;57.680;11.982;2023-03-14T06:39:41;30.00;;;3.70;;
54871;SDS011;43914;57.680;11.982;2023-03-14T06:42:06;33.30;;;4.20;;
54871;SDS011;43914;57.680;11.982;2023-03-14T06:44:32;32.80;;;4.40;;
54871;SDS011;43914;57.680;11.982;2023-03-14T06:46:57;29.00;;;4.20;;
54871;SDS011;43914;57.680;11.982;2023-03-14T06:49:23;35.00;;;4.50;;
54871;SDS011;43914;57.680;11.982;2023-03-14T06:51:48;30.00;;;4.00;;
54871;SDS011;43914;57.680;11.982;2023-03-14T06:54:14;32.40;;;3.90;;
54871;SDS011;43914;57.680;11.982;2023-03-14T06:56:39;37.10;;;4.60;;
54871;SDS011;43914;57.680;11.982;2023-03-14T06:59:05;35.20;;;4.50;;
54871;SDS011;43914;57.680;11.982;2023-03-14T07:01:31;28.40;;;4.40;;
54871;SDS011;43914;57.680;11.982;2023-03-14T07:04:00;36.30;;;4.20;;
54871;SDS011;43914;57.680;11.982;2023-03-14T07:06:26;25.50;;;4.10;;
54871;SDS011;43914;57.680;11.982;2023-03-14T07:08:55;29.80;;;3.90;;
54871;SDS011;43914;57.680;11.982;2023-03-14T07:11:22;31.80;;;4.20;;
54871;SDS011;43914;57.680;11.982;2023-03-14T07:13:47;27.90;;;4.60;;
54871;SDS011;43914;57.680;11.982;2023-03-14T07:16:13;25.80;;;4.00;;
54871;SDS011;43914;57.680;11.982;2023-03-14T07:18:38;22.70;;;2.70;;
54871;SDS011;43914;57.680;11.982;2023-03-14T07:21:05;23.90;;;4.30;;
54871;SDS011;43914;57.680;11.982;2023-03-14T07:23:32;25.80;;;4.00;;
54871;SDS011;43914;57.680;11.982;2023-03-14T07:25:58;21.80;;;3.00;;
54871;SDS011;43914;57.680;11.982;2023-03-14T07:28:24;12.30;;;2.60;;
54871;SDS011;43914;57.680;11.982;2023-03-14T07:30:49;15.80;;;3.00;;
54871;SDS011;43914;57.680;11.982;2023-03-14T07:33:15;21.40;;;2.60;;
54871;SDS011;43914;57.680;11.982;2023-03-14T07:35:41;23.90;;;2.90;;
54871;SDS011;43914;57.680;11.982;2023-03-14T07:38:06;19.70;;;2.50;;
54871;SDS011;43914;57.680;11.982;2023-03-14T07:40:32;18.40;;;2.70;;
54871;SDS011;43914;57.680;11.982;2023-03-14T07:42:57;20.20;;;2.30;;
54871;SDS011;43914;57.680;11.982;2023-03-14T07:45:23;22.20;;;2.50;;
54871;SDS011;43914;57.680;11.982;2023-03-14T07:47:48;20.50;;;2.70;;
54871;SDS011;43914;57.680;11.982;2023-03-14T07:50:14;24.80;;;2.80;;
54871;SDS011;43914;57.680;11.982;2023-03-14T07:52:39;23.60;;;3.40;;
54871;SDS011;43914;57.680;11.982;2023-03-14T07:55:05;20.40;;;2.90;;
54871;SDS011;43914;57.680;11.982;2023-03-14T07:57:30;24.90;;;2.70;;
54871;SDS011;43914;57.680;11.982;2023-03-14T07:59:56;14.20;;;2.40;;
54871;SDS011;43914;57.680;11.982;2023-03-14T08:02:21;15.20;;;2.60;;
54871;SDS011;43914;57.680;11.982;2023-03-14T08:04:49;25.70;;;3.40;;
54871;SDS011;43914;57.680;11.982;2023-03-14T08:07:15;19.40;;;2.70;;
54871;SDS011;43914;57.680;11.982;2023-03-14T08:09:40;23.10;;;3.50;;
54871;SDS011;43914;57.680;11.982;2023-03-14T08:12:06;17.00;;;2.30;;
54871;SDS011;43914;57.680;11.982;2023-03-14T08:14:32;18.30;;;3.10;;
54871;SDS011;43914;57.680;11.982;2023-03-14T08:16:57;23.80;;;3.20;;
54871;SDS011;43914;57.680;11.982;2023-03-14T08:19:23;26.40;;;3.70;;
54871;SDS011;43914;57.680;11.982;2023-03-14T08:21:48;17.30;;;2.70;;
54871;SDS011;43914;57.680;11.982;2023-03-14T08:24:14;21.00;;;2.70;;
54871;SDS011;43914;57.680;11.982;2023-03-14T08:26:39;24.70;;;2.80;;
54871;SDS011;43914;57.680;11.982;2023-03-14T08:29:05;22.10;;;3.00;;
54871;SDS011;43914;57.680;11.982;2023-03-14T08:31:30;23.70;;;2.60;;
54871;SDS011;43914;57.680;11.982;2023-03-14T08:33:59;19.60;;;3.40;;
54871;SDS011;43914;57.680;11.982;2023-03-14T08:36:25;17.70;;;3.20;;
54871;SDS011;43914;57.680;11.982;2023-03-14T08:38:50;18.60;;;2.70;;
54871;SDS011;43914;57.680;11.982;2023-03-14T08:41:16;25.90;;;2.50;;
54871;SDS011;43914;57.680;11.982;2023-03-14T08:43:41;18.70;;;2.80;;
54871;SDS011;43914;57.680;11.982;2023-03-14T08:46:07;16.90;;;2.40;;
54871;SDS011;43914;57.680;11.982;2023-03-14T08:48:32;18.90;;;2.20;;
54871;SDS011;43914;57.680;11.982;2023-03-14T08:51:04;18.40;;;2.60;;
54871;SDS011;43914;57.680;11.982;2023-03-14T08:53:34;18.10;;;2.30;;
54871;SDS011;43914;57.680;11.982;2023-03-14T08:56:00;21.70;;;2.20;;
54871;SDS011;43914;57.680;11.982;2023-03-14T08:58:25;13.70;;;2.00;;
54871;SDS011;43914;57.680;11.982;2023-03-14T09:00:53;19.90;;;2.40;;
54871;SDS011;43914;57.680;11.982;2023-03-14T09:03:18;15.60;;;2.40;;
54871;SDS011;43914;57.680;11.982;2023-03-14T09:05:44;19.90;;;2.10;;
54871;SDS011;43914;57.680;11.982;2023-03-14T09:08:09;11.20;;;2.30;;
54871;SDS011;43914;57.680;11.982;2023-03-14T09:10:35;18.00;;;2.60;;
54871;SDS011;43914;57.680;11.982;2023-03-14T09:13:01;15.50;;;1.80;;
54871;SDS011;43914;57.680;11.982;2023-03-14T09:15:26;15.10;;;1.80;;
54871;SDS011;43914;57.680;11.982;2023-03-14T09:17:52;15.50;;;2.00;;
54871;SDS011;43914;57.680;11.982;2023-03-14T09:20:17;15.70;;;2.10;;
54871;SDS011;43914;57.680;11.982;2023-03-14T09:22:43;12.20;;;1.60;;
54871;SDS011;43914;57.680;11.982;2023-03-14T09:25:08;13.10;;;1.80;;
54871;SDS011;43914;57.680;11.982;2023-03-14T09:27:35;17.20;;;2.40;;
54871;SDS011;43914;57.680;11.982;2023-03-14T09:30:01;15.60;;;2.00;;
54871;SDS011;43914;57.680;11.982;2023-03-14T09:32:27;11.90;;;1.80;;
54871;SDS011;43914;57.680;11.982;2023-03-14T09:34:52;16.90;;;2.10;;
54871;SDS011;43914;57.680;11.982;2023-03-14T09:37:18;12.10;;;1.70;;
54871;SDS011;43914;57.680;11.982;2023-03-14T09:39:45;12.20;;;1.50;;
54871;SDS011;43914;57.680;11.982;2023-03-14T09:42:13;15.70;;;1.60;;
54871;SDS011;43914;57.680;11.982;2023-03-14T09:44:47;11.80;;;2.20;;
54871;SDS011;43914;57.680;11.982;2023-03-14T09:47:15;15.50;;;2.10;;
54871;SDS011;43914;57.680;11.982;2023-03-14T09:49:45;13.30;;;1.70;;
54871;SDS011;43914;57.680;11.982;2023-03-14T09:52:31;13.40;;;1.70;;
54871;SDS011;43914;57.680;11.982;2023-03-14T09:54:59;11.60;;;1.40;;
54871;SDS011;43914;57.680;11.982;2023-03-14T09:57:28;12.70;;;1.70;;
54871;SDS011;43914;57.680;11.982;2023-03-14T09:59:55;12.70;;;1.60;;
54871;SDS011;43914;57.680;11.982;2023-03-14T10:02:28;14.40;;;1.60;;
54871;SDS011;43914;57.680;11.982;2023-03-14T10:04:59;8.80;;;1.40;;
54871;SDS011;43914;57.680;11.982;2023-03-14T10:07:29;12.60;;;1.90;;
54871;SDS011;43914;57.680;11.982;2023-03-14T10:09:56;17.90;;;2.50;;
54871;SDS011;43914;57.680;11.982;2023-03-14T10:12:33;19.60;;;2.30;;
54871;SDS011;43914;57.680;11.982;2023-03-14T10:15:05;14.60;;;2.10;;
54871;SDS011;43914;57.680;11.982;2023-03-14T10:17:40;18.40;;;1.70;;
54871;SDS011;43914;57.680;11.982;2023-03-14T10:20:25;12.00;;;1.60;;
54871;SDS011;43914;57.680;11.982;2023-03-14T10:22:57;11.60;;;1.60;;
54871;SDS011;43914;57.680;11.982;2023-03-14T10:25:44;15.10;;;2.10;;
54871;SDS011;43914;57.680;11.982;2023-03-14T10:28:34;11.60;;;1.60;;
54871;SDS011;43914;57.680;11.982;2023-03-14T10:31:07;10.90;;;1.40;;
54871;SDS011;43914;57.680;11.982;2023-03-14T10:33:33;14.70;;;1.50;;
54871;SDS011;43914;57.680;11.982;2023-03-14T10:36:01;11.10;;;1.40;;
54871;SDS011;43914;57.680;11.982;2023-03-14T10:38:31;7.50;;;1.30;;
54871;SDS011;43914;57.680;11.982;2023-03-14T10:40:59;11.40;;;1.60;;
54871;SDS011;43914;57.680;11.982;2023-03-14T10:43:26;17.80;;;1.60;;
54871;SDS011;43914;57.680;11.982;2023-03-14T10:45:57;11.50;;;1.50;;
54871;SDS011;43914;57.680;11.982;2023-03-14T10:48:37;9.70;;;1.70;;
54871;SDS011;43914;57.680;11.982;2023-03-14T10:51:08;11.20;;;1.30;;
54871;SDS011;43914;57.680;11.982;2023-03-14T10:54:12;11.70;;;1.40;;
54871;SDS011;43914;57.680;11.982;2023-03-14T10:56:44;10.60;;;1.70;;
54871;SDS011;43914;57.680;11.982;2023-03-14T10:59:13;14.90;;;1.80;;
54871;SDS011;43914;57.680;11.982;2023-03-14T11:07:26;14.20;;;1.40;;
54871;SDS011;43914;57.680;11.982;2023-03-14T11:10:10;9.90;;;1.30;;
54871;SDS011;43914;57.680;11.982;2023-03-14T11:21:18;11.30;;;1.40;;
54871;SDS011;43914;57.680;11.982;2023-03-14T11:24:00;10.50;;;1.20;;
54871;SDS011;43914;57.680;11.982;2023-03-14T11:26:37;11.60;;;1.30;;
54871;SDS011;43914;57.680;11.982;2023-03-14T11:34:27;6.20;;;0.90;;
54871;SDS011;43914;57.680;11.982;2023-03-14T11:37:00;11.50;;;1.30;;
54871;SDS011;43914;57.680;11.982;2023-03-14T11:39:38;15.50;;;1.80;;
54871;SDS011;43914;57.680;11.982;2023-03-14T11:44:37;8.50;;;1.50;;
54871;SDS011;43914;57.680;11.982;2023-03-14T11:47:09;8.90;;;1.50;;
54871;SDS011;43914;57.680;11.982;2023-03-14T11:49:43;6.80;;;1.20;;
54871;SDS011;43914;57.680;11.982;2023-03-14T11:52:19;11.10;;;1.20;;
54871;SDS011;43914;57.680;11.982;2023-03-14T11:54:55;11.60;;;1.30;;
54871;SDS011;43914;57.680;11.982;2023-03-14T11:57:22;9.80;;;1.30;;
54871;SDS011;43914;57.680;11.982;2023-03-14T12:08:37;13.10;;;1.30;;
54871;SDS011;43914;57.680;11.982;2023-03-14T12:13:51;8.00;;;1.00;;
54871;SDS011;43914;57.680;11.982;2023-03-14T12:18:58;5.60;;;0.90;;
54871;SDS011;43914;57.680;11.982;2023-03-14T12:21:54;6.20;;;0.90;;
54871;SDS011;43914;57.680;11.982;2023-03-14T12:24:29;8.60;;;1.20;;
54871;SDS011;43914;57.680;11.982;2023-03-14T12:26:57;6.90;;;1.20;;
54871;SDS011;43914;57.680;11.982;2023-03-14T12:29:24;6.80;;;1.20;;
54871;SDS011;43914;57.680;11.982;2023-03-14T12:34:26;7.90;;;1.10;;
54871;SDS011;43914;57.680;11.982;2023-03-14T12:49:49;8.20;;;1.50;;
54871;SDS011;43914;57.680;11.982;2023-03-14T12:53:02;7.50;;;1.10;;
54871;SDS011;43914;57.680;11.982;2023-03-14T12:55:20;5.00;;;1.00;;
54871;SDS011;43914;57.680;11.982;2023-03-14T13:00:30;3.90;;;1.00;;
54871;SDS011;43914;57.680;11.982;2023-03-14T13:03:42;5.10;;;1.00;;
54871;SDS011;43914;57.680;11.982;2023-03-14T13:05:59;9.30;;;1.40;;
54871;SDS011;43914;57.680;11.982;2023-03-14T13:08:43;5.40;;;1.20;;
54871;SDS011;43914;57.680;11.982;2023-03-14T13:11:12;6.10;;;1.00;;
54871;SDS011;43914;57.680;11.982;2023-03-14T13:13:45;6.00;;;1.10;;
54871;SDS011;43914;57.680;11.982;2023-03-14T13:16:17;6.00;;;1.20;;
54871;SDS011;43914;57.680;11.982;2023-03-14T13:18:46;8.50;;;1.20;;
54871;SDS011;43914;57.680;11.982;2023-03-14T13:21:17;7.80;;;1.60;;
54871;SDS011;43914;57.680;11.982;2023-03-14T13:26:36;7.20;;;1.20;;
54871;SDS011;43914;57.680;11.982;2023-03-14T13:29:14;12.00;;;1.50;;
54871;SDS011;43914;57.680;11.982;2023-03-14T13:31:46;4.20;;;1.00;;
54871;SDS011;43914;57.680;11.982;2023-03-14T13:34:13;6.50;;;1.00;;
54871;SDS011;43914;57.680;11.982;2023-03-14T13:36:38;6.20;;;1.20;;
54871;SDS011;43914;57.680;11.982;2023-03-14T13:39:06;7.00;;;1.00;;
54871;SDS011;43914;57.680;11.982;2023-03-14T13:42:03;6.80;;;1.10;;
54871;SDS011;43914;57.680;11.982;2023-03-14T13:44:36;2.80;;;0.70;;
54871;SDS011;43914;57.680;11.982;2023-03-14T13:47:04;4.70;;;0.80;;
54871;SDS011;43914;57.680;11.982;2023-03-14T13:49:35;6.50;;;1.00;;
54871;SDS011;43914;57.680;11.982;2023-03-14T13:52:03;3.60;;;0.80;;
54871;SDS011;43914;57.680;11.982;2023-03-14T13:54:30;3.90;;;0.90;;
54871;SDS011;43914;57.680;11.982;2023-03-14T13:57:00;3.50;;;0.80;;
54871;SDS011;43914;57.680;11.982;2023-03-14T13:59:28;4.80;;;0.80;;
54871;SDS011;43914;57.680;11.982;2023-03-14T14:01:56;6.70;;;1.00;;
54871;SDS011;43914;57.680;11.982;2023-03-14T14:04:25;3.40;;;0.70;;
54871;SDS011;43914;57.680;11.982;2023-03-14T14:07:01;3.60;;;0.80;;
54871;SDS011;43914;57.680;11.982;2023-03-14T14:09:41;6.30;;;0.80;;
54871;SDS011;43914;57.680;11.982;2023-03-14T14:12:14;3.90;;;0.90;;
54871;SDS011;43914;57.680;11.982;2023-03-14T14:14:57;4.30;;;0.90;;
54871;SDS011;43914;57.680;11.982;2023-03-14T14:17:31;4.70;;;0.80;;
54871;SDS011;43914;57.680;11.982;2023-03-14T14:20:01;4.90;;;0.70;;
54871;SDS011;43914;57.680;11.982;2023-03-14T14:22:30;4.10;;;0.80;;
54871;SDS011;43914;57.680;11.982;2023-03-14T14:24:57;3.00;;;0.70;;
54871;SDS011;43914;57.680;11.982;2023-03-14T14:27:29;4.30;;;0.70;;
54871;SDS011;43914;57.680;11.982;2023-03-14T14:30:04;8.50;;;1.10;;
54871;SDS011;43914;57.680;11.982;2023-03-14T14:32:39;3.40;;;0.80;;
54871;SDS011;43914;57.680;11.982;2023-03-14T14:35:06;2.60;;;0.70;;
54871;SDS011;43914;57.680;11.982;2023-03-14T14:37:34;6.10;;;0.90;;
54871;SDS011;43914;57.680;11.982;2023-03-14T14:40:08;1.90;;;0.60;;
54871;SDS011;43914;57.680;11.982;2023-03-14T14:42:41;5.00;;;1.10;;
54871;SDS011;43914;57.680;11.982;2023-03-14T14:45:09;5.50;;;1.00;;
54871;SDS011;43914;57.680;11.982;2023-03-14T14:47:47;7.20;;;1.00;;
54871;SDS011;43914;57.680;11.982;2023-03-14T14:50:26;6.00;;;1.10;;
54871;SDS011;43914;57.680;11.982;2023-03-14T14:53:42;5.00;;;1.00;;
54871;SDS011;43914;57.680;11.982;2023-03-14T14:56:04;4.40;;;0.90;;
54871;SDS011;43914;57.680;11.982;2023-03-14T14:58:36;2.80;;;0.90;;
54871;SDS011;43914;57.680;11.982;2023-03-14T15:01:11;4.30;;;1.00;;
54871;SDS011;43914;57.680;11.982;2023-03-14T15:03:41;3.50;;;0.80;;
54871;SDS011;43914;57.680;11.982;2023-03-14T15:06:09;5.20;;;1.00;;
54871;SDS011;43914;57.680;11.982;2023-03-14T15:08:38;3.40;;;1.00;;
54871;SDS011;43914;57.680;11.982;2023-03-14T15:11:04;4.60;;;0.80;;
54871;SDS011;43914;57.680;11.982;2023-03-14T15:13:30;4.10;;;0.90;;
54871;SDS011;43914;57.680;11.982;2023-03-14T15:15:55;6.50;;;1.10;;
54871;SDS011;43914;57.680;11.982;2023-03-14T15:18:22;4.00;;;0.90;;
54871;SDS011;43914;57.680;11.982;2023-03-14T15:20:50;5.50;;;0.90;;
54871;SDS011;43914;57.680;11.982;2023-03-14T15:23:17;3.80;;;0.90;;
54871;SDS011;43914;57.680;11.982;2023-03-14T15:25:46;2.20;;;0.80;;
54871;SDS011;43914;57.680;11.982;2023-03-14T15:30:41;2.90;;;0.80;;
54871;SDS011;43914;57.680;11.982;2023-03-14T15:33:07;5.10;;;1.10;;
54871;SDS011;43914;57.680;11.982;2023-03-14T15:35:34;6.20;;;1.10;;
54871;SDS011;43914;57.680;11.982;2023-03-14T15:38:03;3.70;;;0.80;;
54871;SDS011;43914;57.680;11.982;2023-03-14T15:40:29;5.10;;;1.00;;
54871;SDS011;43914;57.680;11.982;2023-03-14T15:42:55;5.30;;;1.00;;